sensor_id;sensor_type;location;lat;lon;timestamp;P1;durP1;ratioP1;P2;durP2;ratioP2
48578;SDS011;34357;51.948;6.132;2024-03-22T00:01:57;69.40;;;37.45;;
48578;SDS011;34357;51.948;6.132;2024-03-22T00:04:23;69.13;;;39.92;;
48578;SDS011;34357;51.948;6.132;2024-03-22T00:06:49;70.50;;;39.00;;
48578;SDS011;34357;51.948;6.132;2024-03-22T00:09:16;66.65;;;37.55;;
48578;SDS011;34357;51.948;6.132;2024-03-22T00:11:42;70.72;;;38.42;;
48578;SDS011;34357;51.948;6.132;2024-03-22T00:14:08;70.82;;;39.08;;
48578;SDS011;34357;51.948;6.132;2024-03-22T00:16:35;65.75;;;37.60;;
48578;SDS011;34357;51.948;6.132;2024-03-22T00:19:01;65.53;;;38.33;;
48578;SDS011;34357;51.948;6.132;2024-03-22T00:21:27;72.25;;;38.90;;
48578;SDS011;34357;51.948;6.132;2024-03-22T00:23:53;72.82;;;37.72;;
48578;SDS011;34357;51.948;6.132;2024-03-22T00:26:19;69.78;;;39.42;;
48578;SDS011;34357;51.948;6.132;2024-03-22T00:28:44;69.32;;;39.58;;
48578;SDS011;34357;51.948;6.132;2024-03-22T00:31:10;68.80;;;38.65;;
48578;SDS011;34357;51.948;6.132;2024-03-22T00:33:36;69.07;;;39.30;;
48578;SDS011;34357;51.948;6.132;2024-03-22T00:36:01;69.30;;;38.42;;
48578;SDS011;34357;51.948;6.132;2024-03-22T00:38:27;77.63;;;41.08;;
48578;SDS011;34357;51.948;6.132;2024-03-22T00:40:53;77.07;;;38.92;;
48578;SDS011;34357;51.948;6.132;2024-03-22T00:43:19;75.40;;;40.83;;
48578;SDS011;34357;51.948;6.132;2024-03-22T00:45:45;74.78;;;40.72;;
48578;SDS011;34357;51.948;6.132;2024-03-22T00:48:11;80.82;;;42.35;;
48578;SDS011;34357;51.948;6.132;2024-03-22T00:50:37;80.13;;;41.85;;
48578;SDS011;34357;51.948;6.132;2024-03-22T00:53:03;77.25;;;41.80;;
48578;SDS011;34357;51.948;6.132;2024-03-22T00:55:30;71.75;;;39.45;;
48578;SDS011;34357;51.948;6.132;2024-03-22T00:57:56;79.15;;;43.33;;
48578;SDS011;34357;51.948;6.132;2024-03-22T01:00:22;80.53;;;42.38;;
48578;SDS011;34357;51.948;6.132;2024-03-22T01:02:49;84.30;;;44.42;;
48578;SDS011;34357;51.948;6.132;2024-03-22T01:05:15;81.18;;;42.03;;
48578;SDS011;34357;51.948;6.132;2024-03-22T01:07:41;78.95;;;40.88;;
48578;SDS011;34357;51.948;6.132;2024-03-22T01:10:07;75.88;;;39.90;;
48578;SDS011;34357;51.948;6.132;2024-03-22T01:12:32;81.60;;;42.15;;
48578;SDS011;34357;51.948;6.132;2024-03-22T01:14:58;83.00;;;41.20;;
48578;SDS011;34357;51.948;6.132;2024-03-22T01:17:24;83.82;;;42.63;;
48578;SDS011;34357;51.948;6.132;2024-03-22T01:19:50;77.00;;;43.08;;
48578;SDS011;34357;51.948;6.132;2024-03-22T01:22:16;81.53;;;44.50;;
48578;SDS011;34357;51.948;6.132;2024-03-22T01:24:43;83.45;;;42.58;;
48578;SDS011;34357;51.948;6.132;2024-03-22T01:27:09;81.10;;;44.63;;
48578;SDS011;34357;51.948;6.132;2024-03-22T01:29:34;80.35;;;43.13;;
48578;SDS011;34357;51.948;6.132;2024-03-22T01:32:01;86.25;;;44.47;;
48578;SDS011;34357;51.948;6.132;2024-03-22T01:34:27;87.28;;;45.63;;
48578;SDS011;34357;51.948;6.132;2024-03-22T01:36:53;83.07;;;44.28;;
48578;SDS011;34357;51.948;6.132;2024-03-22T01:39:19;87.15;;;45.28;;
48578;SDS011;34357;51.948;6.132;2024-03-22T01:41:52;90.95;;;46.88;;
48578;SDS011;34357;51.948;6.132;2024-03-22T01:44:17;81.68;;;44.50;;
48578;SDS011;34357;51.948;6.132;2024-03-22T01:46:44;97.63;;;46.35;;
48578;SDS011;34357;51.948;6.132;2024-03-22T01:49:14;84.35;;;43.33;;
48578;SDS011;34357;51.948;6.132;2024-03-22T01:51:41;83.60;;;43.88;;
48578;SDS011;34357;51.948;6.132;2024-03-22T01:54:08;91.18;;;46.13;;
48578;SDS011;34357;51.948;6.132;2024-03-22T01:56:37;92.40;;;46.90;;
48578;SDS011;34357;51.948;6.132;2024-03-22T01:59:04;91.97;;;47.92;;
48578;SDS011;34357;51.948;6.132;2024-03-22T02:01:31;93.13;;;46.75;;
48578;SDS011;34357;51.948;6.132;2024-03-22T02:03:57;95.22;;;47.65;;
48578;SDS011;34357;51.948;6.132;2024-03-22T02:06:23;92.18;;;47.05;;
48578;SDS011;34357;51.948;6.132;2024-03-22T02:08:49;90.82;;;46.40;;
48578;SDS011;34357;51.948;6.132;2024-03-22T02:11:14;90.32;;;46.33;;
48578;SDS011;34357;51.948;6.132;2024-03-22T02:13:40;87.97;;;46.13;;
48578;SDS011;34357;51.948;6.132;2024-03-22T02:16:08;87.25;;;45.42;;
48578;SDS011;34357;51.948;6.132;2024-03-22T02:18:34;87.50;;;45.00;;
48578;SDS011;34357;51.948;6.132;2024-03-22T02:20:59;87.18;;;46.22;;
48578;SDS011;34357;51.948;6.132;2024-03-22T02:23:43;88.95;;;47.03;;
48578;SDS011;34357;51.948;6.132;2024-03-22T02:26:09;84.90;;;45.45;;
48578;SDS011;34357;51.948;6.132;2024-03-22T02:28:35;89.43;;;46.70;;
48578;SDS011;34357;51.948;6.132;2024-03-22T02:31:04;88.68;;;45.83;;
48578;SDS011;34357;51.948;6.132;2024-03-22T02:33:30;78.70;;;40.30;;
48578;SDS011;34357;51.948;6.132;2024-03-22T02:35:56;84.03;;;44.80;;
48578;SDS011;34357;51.948;6.132;2024-03-22T02:38:22;87.90;;;46.13;;
48578;SDS011;34357;51.948;6.132;2024-03-22T02:40:48;89.93;;;46.80;;
48578;SDS011;34357;51.948;6.132;2024-03-22T02:43:16;77.90;;;42.75;;
48578;SDS011;34357;51.948;6.132;2024-03-22T02:45:46;77.50;;;44.25;;
48578;SDS011;34357;51.948;6.132;2024-03-22T02:48:12;78.45;;;43.90;;
48578;SDS011;34357;51.948;6.132;2024-03-22T02:50:38;76.82;;;42.08;;
48578;SDS011;34357;51.948;6.132;2024-03-22T02:53:04;80.65;;;44.13;;
48578;SDS011;34357;51.948;6.132;2024-03-22T02:55:30;69.30;;;40.00;;
48578;SDS011;34357;51.948;6.132;2024-03-22T02:58:05;74.38;;;41.40;;
48578;SDS011;34357;51.948;6.132;2024-03-22T03:00:38;74.47;;;42.42;;
48578;SDS011;34357;51.948;6.132;2024-03-22T03:03:04;75.82;;;42.75;;
48578;SDS011;34357;51.948;6.132;2024-03-22T03:05:30;68.90;;;39.55;;
48578;SDS011;34357;51.948;6.132;2024-03-22T03:07:56;69.68;;;40.75;;
48578;SDS011;34357;51.948;6.132;2024-03-22T03:10:22;68.45;;;36.92;;
48578;SDS011;34357;51.948;6.132;2024-03-22T03:12:47;73.10;;;41.42;;
48578;SDS011;34357;51.948;6.132;2024-03-22T03:15:13;77.78;;;43.55;;
48578;SDS011;34357;51.948;6.132;2024-03-22T03:17:39;78.40;;;42.75;;
48578;SDS011;34357;51.948;6.132;2024-03-22T03:20:05;77.55;;;43.85;;
48578;SDS011;34357;51.948;6.132;2024-03-22T03:22:35;73.97;;;41.70;;
48578;SDS011;34357;51.948;6.132;2024-03-22T03:25:03;75.32;;;43.28;;
48578;SDS011;34357;51.948;6.132;2024-03-22T03:27:29;70.72;;;42.33;;
48578;SDS011;34357;51.948;6.132;2024-03-22T03:29:55;76.10;;;42.00;;
48578;SDS011;34357;51.948;6.132;2024-03-22T03:32:21;72.68;;;42.38;;
48578;SDS011;34357;51.948;6.132;2024-03-22T03:34:47;72.05;;;42.50;;
48578;SDS011;34357;51.948;6.132;2024-03-22T03:37:12;77.82;;;43.33;;
48578;SDS011;34357;51.948;6.132;2024-03-22T03:39:39;74.20;;;43.17;;
48578;SDS011;34357;51.948;6.132;2024-03-22T03:42:05;70.25;;;41.33;;
48578;SDS011;34357;51.948;6.132;2024-03-22T03:44:30;74.00;;;44.10;;
48578;SDS011;34357;51.948;6.132;2024-03-22T03:46:56;74.10;;;41.83;;
48578;SDS011;34357;51.948;6.132;2024-03-22T03:49:22;69.00;;;40.42;;
48578;SDS011;34357;51.948;6.132;2024-03-22T03:51:47;77.82;;;43.33;;
48578;SDS011;34357;51.948;6.132;2024-03-22T03:54:13;77.60;;;44.08;;
48578;SDS011;34357;51.948;6.132;2024-03-22T03:56:39;73.95;;;42.33;;
48578;SDS011;34357;51.948;6.132;2024-03-22T03:59:04;75.95;;;44.03;;
48578;SDS011;34357;51.948;6.132;2024-03-22T04:01:30;79.53;;;45.10;;
48578;SDS011;34357;51.948;6.132;2024-03-22T04:03:56;77.80;;;45.45;;
48578;SDS011;34357;51.948;6.132;2024-03-22T04:06:21;77.10;;;43.35;;
48578;SDS011;34357;51.948;6.132;2024-03-22T04:08:47;75.03;;;44.45;;
48578;SDS011;34357;51.948;6.132;2024-03-22T04:11:13;69.93;;;40.42;;
48578;SDS011;34357;51.948;6.132;2024-03-22T04:13:38;76.47;;;44.85;;
48578;SDS011;34357;51.948;6.132;2024-03-22T04:16:04;76.03;;;42.05;;
48578;SDS011;34357;51.948;6.132;2024-03-22T04:18:30;72.40;;;40.58;;
48578;SDS011;34357;51.948;6.132;2024-03-22T04:20:56;76.40;;;45.20;;
48578;SDS011;34357;51.948;6.132;2024-03-22T04:23:23;68.00;;;41.30;;
48578;SDS011;34357;51.948;6.132;2024-03-22T04:25:53;70.03;;;41.65;;
48578;SDS011;34357;51.948;6.132;2024-03-22T04:28:24;76.35;;;45.10;;
48578;SDS011;34357;51.948;6.132;2024-03-22T04:33:26;75.50;;;44.30;;
48578;SDS011;34357;51.948;6.132;2024-03-22T04:35:53;74.20;;;44.80;;
48578;SDS011;34357;51.948;6.132;2024-03-22T04:38:19;68.65;;;43.05;;
48578;SDS011;34357;51.948;6.132;2024-03-22T04:40:45;68.65;;;40.97;;
48578;SDS011;34357;51.948;6.132;2024-03-22T04:43:11;71.05;;;41.83;;
48578;SDS011;34357;51.948;6.132;2024-03-22T04:45:36;69.15;;;41.85;;
48578;SDS011;34357;51.948;6.132;2024-03-22T04:48:03;65.80;;;40.15;;
48578;SDS011;34357;51.948;6.132;2024-03-22T04:50:29;76.35;;;43.58;;
48578;SDS011;34357;51.948;6.132;2024-03-22T04:52:55;68.22;;;41.78;;
48578;SDS011;34357;51.948;6.132;2024-03-22T04:55:21;68.53;;;41.92;;
48578;SDS011;34357;51.948;6.132;2024-03-22T04:57:46;64.47;;;38.35;;
48578;SDS011;34357;51.948;6.132;2024-03-22T05:00:12;66.80;;;40.83;;
48578;SDS011;34357;51.948;6.132;2024-03-22T05:02:38;69.10;;;40.70;;
48578;SDS011;34357;51.948;6.132;2024-03-22T05:05:05;66.00;;;39.80;;
48578;SDS011;34357;51.948;6.132;2024-03-22T05:07:32;66.82;;;40.75;;
48578;SDS011;34357;51.948;6.132;2024-03-22T05:09:58;62.97;;;39.10;;
48578;SDS011;34357;51.948;6.132;2024-03-22T05:12:23;63.70;;;39.40;;
48578;SDS011;34357;51.948;6.132;2024-03-22T05:14:49;60.03;;;37.67;;
48578;SDS011;34357;51.948;6.132;2024-03-22T05:17:15;69.55;;;39.95;;
48578;SDS011;34357;51.948;6.132;2024-03-22T05:19:41;64.40;;;40.60;;
48578;SDS011;34357;51.948;6.132;2024-03-22T05:22:06;69.32;;;42.13;;
48578;SDS011;34357;51.948;6.132;2024-03-22T05:24:32;65.68;;;41.67;;
48578;SDS011;34357;51.948;6.132;2024-03-22T05:26:58;65.88;;;38.90;;
48578;SDS011;34357;51.948;6.132;2024-03-22T05:29:24;65.65;;;40.65;;
48578;SDS011;34357;51.948;6.132;2024-03-22T05:31:50;61.83;;;40.60;;
48578;SDS011;34357;51.948;6.132;2024-03-22T05:34:17;59.63;;;39.10;;
48578;SDS011;34357;51.948;6.132;2024-03-22T05:36:44;60.05;;;37.03;;
48578;SDS011;34357;51.948;6.132;2024-03-22T05:39:11;58.10;;;37.55;;
48578;SDS011;34357;51.948;6.132;2024-03-22T05:41:37;61.40;;;39.03;;
48578;SDS011;34357;51.948;6.132;2024-03-22T05:44:03;58.05;;;34.50;;
48578;SDS011;34357;51.948;6.132;2024-03-22T05:46:29;65.32;;;39.20;;
48578;SDS011;34357;51.948;6.132;2024-03-22T05:48:56;60.60;;;38.15;;
48578;SDS011;34357;51.948;6.132;2024-03-22T05:51:22;65.05;;;39.78;;
48578;SDS011;34357;51.948;6.132;2024-03-22T05:53:48;65.70;;;40.58;;
48578;SDS011;34357;51.948;6.132;2024-03-22T05:56:14;63.15;;;38.65;;
48578;SDS011;34357;51.948;6.132;2024-03-22T05:58:39;66.82;;;38.38;;
48578;SDS011;34357;51.948;6.132;2024-03-22T06:01:05;65.43;;;39.70;;
48578;SDS011;34357;51.948;6.132;2024-03-22T06:03:31;63.92;;;40.83;;
48578;SDS011;34357;51.948;6.132;2024-03-22T06:05:58;71.93;;;41.55;;
48578;SDS011;34357;51.948;6.132;2024-03-22T06:08:28;65.50;;;40.08;;
48578;SDS011;34357;51.948;6.132;2024-03-22T06:10:54;59.30;;;35.45;;
48578;SDS011;34357;51.948;6.132;2024-03-22T06:13:23;63.97;;;38.17;;
48578;SDS011;34357;51.948;6.132;2024-03-22T06:15:49;59.10;;;35.42;;
48578;SDS011;34357;51.948;6.132;2024-03-22T06:18:16;60.63;;;37.25;;
48578;SDS011;34357;51.948;6.132;2024-03-22T06:20:42;58.20;;;36.45;;
48578;SDS011;34357;51.948;6.132;2024-03-22T06:23:08;60.47;;;37.65;;
48578;SDS011;34357;51.948;6.132;2024-03-22T06:25:34;56.67;;;35.33;;
48578;SDS011;34357;51.948;6.132;2024-03-22T06:28:00;53.60;;;33.25;;
48578;SDS011;34357;51.948;6.132;2024-03-22T06:30:26;55.65;;;33.67;;
48578;SDS011;34357;51.948;6.132;2024-03-22T06:32:53;52.05;;;32.55;;
48578;SDS011;34357;51.948;6.132;2024-03-22T06:35:20;52.63;;;33.03;;
48578;SDS011;34357;51.948;6.132;2024-03-22T06:37:46;51.58;;;31.52;;
48578;SDS011;34357;51.948;6.132;2024-03-22T06:40:11;44.10;;;25.77;;
48578;SDS011;34357;51.948;6.132;2024-03-22T06:42:37;42.45;;;25.70;;
48578;SDS011;34357;51.948;6.132;2024-03-22T06:45:03;45.00;;;27.77;;
48578;SDS011;34357;51.948;6.132;2024-03-22T06:47:29;41.50;;;26.15;;
48578;SDS011;34357;51.948;6.132;2024-03-22T06:49:55;40.95;;;24.52;;
48578;SDS011;34357;51.948;6.132;2024-03-22T06:52:20;41.95;;;25.70;;
48578;SDS011;34357;51.948;6.132;2024-03-22T06:54:46;47.67;;;25.05;;
48578;SDS011;34357;51.948;6.132;2024-03-22T06:57:12;38.28;;;24.25;;
48578;SDS011;34357;51.948;6.132;2024-03-22T06:59:38;39.55;;;23.63;;
48578;SDS011;34357;51.948;6.132;2024-03-22T07:02:03;38.28;;;24.00;;
48578;SDS011;34357;51.948;6.132;2024-03-22T07:04:29;38.13;;;23.92;;
48578;SDS011;34357;51.948;6.132;2024-03-22T07:06:55;36.90;;;22.55;;
48578;SDS011;34357;51.948;6.132;2024-03-22T07:09:21;34.38;;;22.02;;
48578;SDS011;34357;51.948;6.132;2024-03-22T07:11:46;36.40;;;23.42;;
48578;SDS011;34357;51.948;6.132;2024-03-22T07:14:12;35.67;;;22.85;;
48578;SDS011;34357;51.948;6.132;2024-03-22T07:16:38;36.45;;;23.05;;
48578;SDS011;34357;51.948;6.132;2024-03-22T07:19:04;39.22;;;24.08;;
48578;SDS011;34357;51.948;6.132;2024-03-22T07:21:29;33.50;;;21.67;;
48578;SDS011;34357;51.948;6.132;2024-03-22T07:23:56;37.55;;;23.88;;
48578;SDS011;34357;51.948;6.132;2024-03-22T07:26:21;36.70;;;22.85;;
48578;SDS011;34357;51.948;6.132;2024-03-22T07:28:47;38.72;;;22.08;;
48578;SDS011;34357;51.948;6.132;2024-03-22T07:31:13;34.88;;;23.50;;
48578;SDS011;34357;51.948;6.132;2024-03-22T07:33:39;40.30;;;23.42;;
48578;SDS011;34357;51.948;6.132;2024-03-22T07:36:05;35.70;;;22.17;;
48578;SDS011;34357;51.948;6.132;2024-03-22T07:38:31;34.83;;;20.60;;
48578;SDS011;34357;51.948;6.132;2024-03-22T07:40:57;32.60;;;20.20;;
48578;SDS011;34357;51.948;6.132;2024-03-22T07:43:23;36.20;;;23.90;;
48578;SDS011;34357;51.948;6.132;2024-03-22T07:45:48;34.00;;;21.83;;
48578;SDS011;34357;51.948;6.132;2024-03-22T07:48:14;42.28;;;24.08;;
48578;SDS011;34357;51.948;6.132;2024-03-22T07:50:40;35.05;;;20.40;;
48578;SDS011;34357;51.948;6.132;2024-03-22T07:53:06;37.17;;;24.02;;
48578;SDS011;34357;51.948;6.132;2024-03-22T07:55:32;36.88;;;23.02;;
48578;SDS011;34357;51.948;6.132;2024-03-22T07:57:58;33.88;;;20.73;;
48578;SDS011;34357;51.948;6.132;2024-03-22T08:00:24;38.08;;;24.45;;
48578;SDS011;34357;51.948;6.132;2024-03-22T08:02:52;41.72;;;24.70;;
48578;SDS011;34357;51.948;6.132;2024-03-22T08:05:18;39.75;;;23.13;;
48578;SDS011;34357;51.948;6.132;2024-03-22T08:07:44;40.05;;;24.27;;
48578;SDS011;34357;51.948;6.132;2024-03-22T08:10:10;39.75;;;23.02;;
48578;SDS011;34357;51.948;6.132;2024-03-22T08:12:36;40.40;;;25.20;;
48578;SDS011;34357;51.948;6.132;2024-03-22T08:15:01;34.58;;;21.63;;
48578;SDS011;34357;51.948;6.132;2024-03-22T08:17:28;37.15;;;22.42;;
48578;SDS011;34357;51.948;6.132;2024-03-22T08:19:54;38.65;;;24.55;;
48578;SDS011;34357;51.948;6.132;2024-03-22T08:22:19;39.38;;;25.10;;
48578;SDS011;34357;51.948;6.132;2024-03-22T08:24:45;39.83;;;24.98;;
48578;SDS011;34357;51.948;6.132;2024-03-22T08:27:11;41.60;;;25.05;;
48578;SDS011;34357;51.948;6.132;2024-03-22T08:29:37;37.70;;;24.02;;
48578;SDS011;34357;51.948;6.132;2024-03-22T08:32:03;38.92;;;25.75;;
48578;SDS011;34357;51.948;6.132;2024-03-22T08:34:30;39.53;;;26.67;;
48578;SDS011;34357;51.948;6.132;2024-03-22T08:36:57;36.40;;;22.70;;
48578;SDS011;34357;51.948;6.132;2024-03-22T08:39:23;39.03;;;24.02;;
48578;SDS011;34357;51.948;6.132;2024-03-22T08:41:49;42.50;;;26.35;;
48578;SDS011;34357;51.948;6.132;2024-03-22T08:44:16;42.05;;;26.75;;
48578;SDS011;34357;51.948;6.132;2024-03-22T08:46:42;35.50;;;24.65;;
48578;SDS011;34357;51.948;6.132;2024-03-22T08:49:07;43.30;;;26.10;;
48578;SDS011;34357;51.948;6.132;2024-03-22T08:51:33;44.00;;;28.38;;
48578;SDS011;34357;51.948;6.132;2024-03-22T08:53:59;45.50;;;29.63;;
48578;SDS011;34357;51.948;6.132;2024-03-22T08:56:26;43.50;;;28.30;;
48578;SDS011;34357;51.948;6.132;2024-03-22T08:58:51;46.47;;;30.83;;
48578;SDS011;34357;51.948;6.132;2024-03-22T09:01:17;45.65;;;29.15;;
48578;SDS011;34357;51.948;6.132;2024-03-22T09:03:43;45.22;;;29.35;;
48578;SDS011;34357;51.948;6.132;2024-03-22T09:06:12;46.67;;;31.48;;
48578;SDS011;34357;51.948;6.132;2024-03-22T09:08:38;50.83;;;28.88;;
48578;SDS011;34357;51.948;6.132;2024-03-22T09:11:03;45.50;;;30.35;;
48578;SDS011;34357;51.948;6.132;2024-03-22T09:13:30;49.58;;;30.85;;
48578;SDS011;34357;51.948;6.132;2024-03-22T09:15:56;49.45;;;32.92;;
48578;SDS011;34357;51.948;6.132;2024-03-22T09:18:25;48.33;;;29.55;;
48578;SDS011;34357;51.948;6.132;2024-03-22T09:20:52;51.72;;;32.08;;
48578;SDS011;34357;51.948;6.132;2024-03-22T09:23:19;48.25;;;31.83;;
48578;SDS011;34357;51.948;6.132;2024-03-22T09:25:45;42.72;;;25.55;;
48578;SDS011;34357;51.948;6.132;2024-03-22T09:28:12;52.33;;;30.75;;
48578;SDS011;34357;51.948;6.132;2024-03-22T09:30:39;47.13;;;30.02;;
48578;SDS011;34357;51.948;6.132;2024-03-22T09:33:08;48.72;;;31.27;;
48578;SDS011;34357;51.948;6.132;2024-03-22T09:35:34;53.95;;;31.27;;
48578;SDS011;34357;51.948;6.132;2024-03-22T09:38:00;53.67;;;32.53;;
48578;SDS011;34357;51.948;6.132;2024-03-22T09:40:27;55.88;;;34.38;;
48578;SDS011;34357;51.948;6.132;2024-03-22T09:42:58;51.30;;;33.15;;
48578;SDS011;34357;51.948;6.132;2024-03-22T09:45:29;52.20;;;32.58;;
48578;SDS011;34357;51.948;6.132;2024-03-22T09:47:57;55.28;;;34.72;;
48578;SDS011;34357;51.948;6.132;2024-03-22T09:50:24;58.22;;;34.55;;
48578;SDS011;34357;51.948;6.132;2024-03-22T09:52:51;52.10;;;32.03;;
48578;SDS011;34357;51.948;6.132;2024-03-22T09:55:22;53.97;;;31.45;;
48578;SDS011;34357;51.948;6.132;2024-03-22T09:57:49;51.55;;;34.53;;
48578;SDS011;34357;51.948;6.132;2024-03-22T10:00:17;50.40;;;32.67;;
48578;SDS011;34357;51.948;6.132;2024-03-22T10:02:45;51.80;;;34.20;;
48578;SDS011;34357;51.948;6.132;2024-03-22T10:05:12;48.03;;;30.23;;
48578;SDS011;34357;51.948;6.132;2024-03-22T10:07:38;55.15;;;31.98;;
48578;SDS011;34357;51.948;6.132;2024-03-22T10:10:04;50.17;;;32.28;;
48578;SDS011;34357;51.948;6.132;2024-03-22T10:12:30;49.00;;;29.85;;
48578;SDS011;34357;51.948;6.132;2024-03-22T10:14:56;44.60;;;28.95;;
48578;SDS011;34357;51.948;6.132;2024-03-22T10:17:21;48.80;;;30.10;;
48578;SDS011;34357;51.948;6.132;2024-03-22T10:19:50;49.05;;;30.23;;
48578;SDS011;34357;51.948;6.132;2024-03-22T10:22:16;45.47;;;29.33;;
48578;SDS011;34357;51.948;6.132;2024-03-22T10:24:42;47.83;;;28.65;;
48578;SDS011;34357;51.948;6.132;2024-03-22T10:27:08;29.60;;;16.75;;
48578;SDS011;34357;51.948;6.132;2024-03-22T10:29:37;42.00;;;27.48;;
48578;SDS011;34357;51.948;6.132;2024-03-22T10:32:03;44.15;;;28.27;;
48578;SDS011;34357;51.948;6.132;2024-03-22T10:34:29;47.22;;;26.95;;
48578;SDS011;34357;51.948;6.132;2024-03-22T10:36:57;42.03;;;25.88;;
48578;SDS011;34357;51.948;6.132;2024-03-22T10:39:25;44.67;;;28.40;;
48578;SDS011;34357;51.948;6.132;2024-03-22T10:41:51;48.10;;;29.30;;
48578;SDS011;34357;51.948;6.132;2024-03-22T10:44:18;47.30;;;26.63;;
48578;SDS011;34357;51.948;6.132;2024-03-22T10:46:47;47.45;;;27.42;;
48578;SDS011;34357;51.948;6.132;2024-03-22T10:49:18;47.40;;;29.55;;
48578;SDS011;34357;51.948;6.132;2024-03-22T10:51:49;51.05;;;30.67;;
48578;SDS011;34357;51.948;6.132;2024-03-22T10:54:21;49.63;;;30.13;;
48578;SDS011;34357;51.948;6.132;2024-03-22T10:56:52;49.25;;;31.05;;
48578;SDS011;34357;51.948;6.132;2024-03-22T10:59:19;52.10;;;31.35;;
48578;SDS011;34357;51.948;6.132;2024-03-22T11:01:46;52.10;;;31.38;;
48578;SDS011;34357;51.948;6.132;2024-03-22T11:04:18;49.42;;;31.08;;
48578;SDS011;34357;51.948;6.132;2024-03-22T11:06:48;55.42;;;31.10;;
48578;SDS011;34357;51.948;6.132;2024-03-22T11:09:26;50.90;;;30.67;;
48578;SDS011;34357;51.948;6.132;2024-03-22T11:11:52;49.97;;;29.63;;
48578;SDS011;34357;51.948;6.132;2024-03-22T11:14:19;64.25;;;35.20;;
48578;SDS011;34357;51.948;6.132;2024-03-22T11:16:46;52.03;;;31.73;;
48578;SDS011;34357;51.948;6.132;2024-03-22T11:19:12;56.85;;;32.78;;
48578;SDS011;34357;51.948;6.132;2024-03-22T11:21:38;55.45;;;34.40;;
48578;SDS011;34357;51.948;6.132;2024-03-22T11:24:06;61.92;;;36.67;;
48578;SDS011;34357;51.948;6.132;2024-03-22T11:26:32;56.95;;;34.85;;
48578;SDS011;34357;51.948;6.132;2024-03-22T11:28:58;57.70;;;35.17;;
48578;SDS011;34357;51.948;6.132;2024-03-22T11:31:25;58.47;;;34.88;;
48578;SDS011;34357;51.948;6.132;2024-03-22T11:33:55;54.17;;;34.00;;
48578;SDS011;34357;51.948;6.132;2024-03-22T11:36:24;51.15;;;29.98;;
48578;SDS011;34357;51.948;6.132;2024-03-22T11:38:50;50.13;;;32.05;;
48578;SDS011;34357;51.948;6.132;2024-03-22T11:41:18;47.75;;;28.50;;
48578;SDS011;34357;51.948;6.132;2024-03-22T11:43:48;48.20;;;29.13;;
48578;SDS011;34357;51.948;6.132;2024-03-22T11:46:15;48.10;;;31.45;;
48578;SDS011;34357;51.948;6.132;2024-03-22T11:48:41;53.20;;;32.53;;
48578;SDS011;34357;51.948;6.132;2024-03-22T11:51:08;49.55;;;31.42;;
48578;SDS011;34357;51.948;6.132;2024-03-22T11:53:37;45.90;;;29.52;;
48578;SDS011;34357;51.948;6.132;2024-03-22T11:56:04;44.60;;;29.55;;
48578;SDS011;34357;51.948;6.132;2024-03-22T11:58:30;49.97;;;29.58;;
48578;SDS011;34357;51.948;6.132;2024-03-22T12:00:56;49.80;;;31.00;;
48578;SDS011;34357;51.948;6.132;2024-03-22T12:03:22;47.83;;;31.40;;
48578;SDS011;34357;51.948;6.132;2024-03-22T12:05:49;41.65;;;25.63;;
48578;SDS011;34357;51.948;6.132;2024-03-22T12:08:17;42.42;;;28.05;;
48578;SDS011;34357;51.948;6.132;2024-03-22T12:10:43;41.55;;;27.23;;
48578;SDS011;34357;51.948;6.132;2024-03-22T12:13:09;35.25;;;21.67;;
48578;SDS011;34357;51.948;6.132;2024-03-22T12:15:35;37.42;;;24.52;;
48578;SDS011;34357;51.948;6.132;2024-03-22T12:18:01;41.40;;;26.15;;
48578;SDS011;34357;51.948;6.132;2024-03-22T12:20:27;32.38;;;24.17;;
48578;SDS011;34357;51.948;6.132;2024-03-22T12:22:53;33.35;;;23.27;;
48578;SDS011;34357;51.948;6.132;2024-03-22T12:25:18;33.38;;;22.73;;
48578;SDS011;34357;51.948;6.132;2024-03-22T12:27:46;30.13;;;20.02;;
48578;SDS011;34357;51.948;6.132;2024-03-22T12:30:12;29.10;;;22.92;;
48578;SDS011;34357;51.948;6.132;2024-03-22T12:32:38;34.38;;;24.83;;
48578;SDS011;34357;51.948;6.132;2024-03-22T12:35:03;34.35;;;23.27;;
48578;SDS011;34357;51.948;6.132;2024-03-22T12:37:30;31.83;;;21.60;;
48578;SDS011;34357;51.948;6.132;2024-03-22T12:39:55;31.35;;;21.00;;
48578;SDS011;34357;51.948;6.132;2024-03-22T12:42:21;27.25;;;20.88;;
48578;SDS011;34357;51.948;6.132;2024-03-22T12:44:47;22.40;;;17.35;;
48578;SDS011;34357;51.948;6.132;2024-03-22T12:47:13;25.08;;;19.40;;
48578;SDS011;34357;51.948;6.132;2024-03-22T12:49:39;22.70;;;16.20;;
48578;SDS011;34357;51.948;6.132;2024-03-22T12:52:05;21.30;;;15.85;;
48578;SDS011;34357;51.948;6.132;2024-03-22T12:54:32;21.52;;;15.73;;
48578;SDS011;34357;51.948;6.132;2024-03-22T12:56:58;20.70;;;15.68;;
48578;SDS011;34357;51.948;6.132;2024-03-22T12:59:24;20.70;;;16.90;;
48578;SDS011;34357;51.948;6.132;2024-03-22T13:01:50;23.25;;;17.00;;
48578;SDS011;34357;51.948;6.132;2024-03-22T13:04:15;18.67;;;13.38;;
48578;SDS011;34357;51.948;6.132;2024-03-22T13:06:42;18.05;;;13.93;;
48578;SDS011;34357;51.948;6.132;2024-03-22T13:09:08;16.45;;;12.80;;
48578;SDS011;34357;51.948;6.132;2024-03-22T13:11:34;15.77;;;12.07;;
48578;SDS011;34357;51.948;6.132;2024-03-22T13:14:00;15.50;;;12.60;;
48578;SDS011;34357;51.948;6.132;2024-03-22T13:16:26;14.48;;;12.32;;
48578;SDS011;34357;51.948;6.132;2024-03-22T13:18:52;16.13;;;12.25;;
48578;SDS011;34357;51.948;6.132;2024-03-22T13:21:18;14.70;;;11.80;;
48578;SDS011;34357;51.948;6.132;2024-03-22T13:23:44;13.75;;;12.00;;
48578;SDS011;34357;51.948;6.132;2024-03-22T13:26:10;16.50;;;12.05;;
48578;SDS011;34357;51.948;6.132;2024-03-22T13:28:36;13.73;;;10.93;;
48578;SDS011;34357;51.948;6.132;2024-03-22T13:31:02;13.20;;;11.15;;
48578;SDS011;34357;51.948;6.132;2024-03-22T13:33:31;12.70;;;10.77;;
48578;SDS011;34357;51.948;6.132;2024-03-22T13:35:58;13.50;;;10.85;;
48578;SDS011;34357;51.948;6.132;2024-03-22T13:38:24;13.82;;;10.80;;
48578;SDS011;34357;51.948;6.132;2024-03-22T13:40:55;13.20;;;11.10;;
48578;SDS011;34357;51.948;6.132;2024-03-22T13:43:21;13.32;;;11.70;;
48578;SDS011;34357;51.948;6.132;2024-03-22T13:45:48;13.18;;;10.90;;
48578;SDS011;34357;51.948;6.132;2024-03-22T13:48:19;11.85;;;10.52;;
48578;SDS011;34357;51.948;6.132;2024-03-22T13:50:49;12.65;;;10.05;;
48578;SDS011;34357;51.948;6.132;2024-03-22T13:53:21;13.10;;;10.63;;
48578;SDS011;34357;51.948;6.132;2024-03-22T13:55:48;12.88;;;10.60;;
48578;SDS011;34357;51.948;6.132;2024-03-22T13:58:14;13.50;;;10.80;;
48578;SDS011;34357;51.948;6.132;2024-03-22T14:00:40;15.93;;;11.65;;
48578;SDS011;34357;51.948;6.132;2024-03-22T14:03:05;12.18;;;10.70;;
48578;SDS011;34357;51.948;6.132;2024-03-22T14:05:31;10.57;;;9.20;;
48578;SDS011;34357;51.948;6.132;2024-03-22T14:08:00;12.43;;;9.45;;
48578;SDS011;34357;51.948;6.132;2024-03-22T14:10:26;10.95;;;8.38;;
48578;SDS011;34357;51.948;6.132;2024-03-22T14:12:53;11.02;;;9.02;;
48578;SDS011;34357;51.948;6.132;2024-03-22T14:15:19;9.45;;;8.23;;
48578;SDS011;34357;51.948;6.132;2024-03-22T14:17:45;8.65;;;7.75;;
48578;SDS011;34357;51.948;6.132;2024-03-22T14:20:11;8.30;;;7.45;;